createdAt,value
2018-11-05T00:00:39.659Z,77.00
2018-11-05T00:03:07.422Z,76.70
2018-11-05T00:05:35.084Z,75.80
2018-11-05T00:08:03.020Z,76.20
2018-11-05T00:10:30.583Z,76.00
2018-11-05T00:12:58.320Z,75.90
2018-11-05T00:15:26.049Z,76.40
2018-11-05T00:17:53.985Z,76.20
2018-11-05T00:20:21.731Z,76.10
2018-11-05T00:22:49.527Z,77.00
2018-11-05T00:25:17.496Z,77.50
2018-11-05T00:27:45.261Z,77.10
2018-11-05T00:30:14.026Z,75.60
2018-11-05T00:32:42.418Z,76.30
2018-11-05T00:35:10.503Z,77.30
2018-11-05T00:37:38.303Z,77.80
2018-11-05T00:40:14.073Z,78.10
2018-11-05T00:42:42.790Z,77.40
2018-11-05T00:45:11.454Z,76.10
2018-11-05T00:47:39.646Z,75.00
2018-11-05T00:50:09.361Z,75.00
2018-11-05T00:52:37.390Z,74.70
2018-11-05T00:55:05.301Z,74.90
2018-11-05T00:57:33.141Z,74.30
2018-11-05T01:00:00.954Z,73.40
2018-11-05T01:02:28.572Z,73.50
2018-11-05T01:04:56.156Z,74.50
2018-11-05T01:07:24.464Z,74.60
2018-11-05T01:09:52.059Z,74.30
2018-11-05T01:12:19.705Z,74.50
2018-11-05T01:14:47.304Z,74.90
2018-11-05T01:17:14.876Z,75.30
2018-11-05T01:19:42.896Z,75.50
2018-11-05T01:22:10.440Z,74.70
2018-11-05T01:24:38.004Z,75.00
2018-11-05T01:27:05.566Z,75.40
2018-11-05T01:29:33.679Z,75.50
2018-11-05T01:32:01.265Z,75.30
2018-11-05T01:34:29.409Z,75.40
2018-11-05T01:36:57.037Z,75.80
2018-11-05T01:39:24.639Z,75.50
2018-11-05T01:41:52.293Z,76.20
2018-11-05T01:44:20.220Z,76.30
2018-11-05T01:46:47.812Z,76.80
2018-11-05T01:49:15.899Z,77.00
2018-11-05T01:51:43.519Z,76.90
2018-11-05T01:54:11.123Z,76.80
2018-11-05T01:56:38.920Z,76.40
2018-11-05T01:59:06.557Z,76.30
2018-11-05T02:01:34.528Z,77.10
2018-11-05T02:04:02.888Z,78.10
2018-11-05T02:06:30.471Z,78.70
2018-11-05T02:08:58.088Z,79.30
2018-11-05T02:11:25.836Z,79.00
2018-11-05T02:13:53.711Z,79.00
2018-11-05T02:16:21.554Z,79.00
2018-11-05T02:18:49.815Z,79.10
2018-11-05T02:21:18.132Z,79.50
2018-11-05T02:23:45.896Z,79.40
2018-11-05T02:26:13.482Z,79.70
2018-11-05T02:28:41.839Z,80.50
2018-11-05T02:31:09.865Z,80.90
2018-11-05T02:33:37.550Z,80.20
2018-11-05T02:36:05.147Z,79.80
2018-11-05T02:38:33.412Z,80.80
2018-11-05T02:41:01.740Z,81.50
2018-11-05T02:43:29.467Z,82.90
2018-11-05T02:45:57.672Z,83.00
2018-11-05T02:48:25.284Z,82.40
2018-11-05T02:50:53.508Z,82.00
2018-11-05T02:53:21.149Z,83.10
2018-11-05T02:55:48.800Z,83.80
2018-11-05T02:58:17.093Z,84.70
2018-11-05T03:00:45.161Z,84.50
2018-11-05T03:03:12.814Z,84.40
2018-11-05T03:05:40.510Z,84.00
2018-11-05T03:08:08.146Z,83.10
2018-11-05T03:10:35.767Z,83.00
2018-11-05T03:13:03.652Z,83.20
2018-11-05T03:15:31.825Z,82.70
2018-11-05T03:17:59.839Z,82.20
2018-11-05T03:20:27.909Z,82.20
2018-11-05T03:23:01.891Z,81.70
2018-11-05T03:25:31.963Z,82.00
2018-11-05T03:28:01.442Z,81.50
2018-11-05T03:30:29.337Z,81.10
2018-11-05T03:32:57.206Z,82.10
2018-11-05T03:35:28.679Z,82.70
2018-11-05T03:37:56.630Z,82.60
2018-11-05T03:40:24.554Z,83.20
2018-11-05T03:42:52.330Z,82.10
2018-11-05T03:45:20.205Z,81.70
2018-11-05T03:47:48.179Z,81.30
2018-11-05T03:50:23.879Z,81.30
2018-11-05T03:52:55.235Z,81.20
2018-11-05T03:55:24.992Z,80.50
2018-11-05T03:57:55.495Z,80.80
2018-11-05T04:00:27.605Z,81.40
2018-11-05T04:02:57.880Z,82.30
2018-11-05T04:05:27.291Z,82.80
2018-11-05T04:07:58.097Z,82.50
2018-11-05T04:10:27.337Z,81.60
2018-11-05T04:13:03.941Z,80.80
2018-11-05T04:15:33.858Z,80.90
2018-11-05T04:18:03.378Z,81.00
2018-11-05T04:20:33.557Z,80.80
2018-11-05T04:23:01.531Z,81.90
2018-11-05T04:25:33.099Z,82.80
2018-11-05T04:28:03.928Z,82.90
2018-11-05T04:30:32.149Z,83.60
2018-11-05T04:33:00.330Z,83.90
2018-11-05T04:35:31.224Z,83.60
2018-11-05T04:38:01.582Z,83.50
2018-11-05T04:40:37.951Z,83.50
2018-11-05T04:43:09.282Z,84.00
2018-11-05T04:45:42.866Z,84.10
2018-11-05T04:52:20.178Z,84.30
2018-11-05T04:55:04.553Z,84.30
2018-11-05T04:57:44.053Z,83.90
2018-11-05T05:00:30.904Z,83.80
2018-11-05T05:06:21.922Z,84.00
2018-11-05T05:12:46.261Z,85.60
2018-11-05T05:15:17.499Z,84.40
2018-11-05T05:17:45.320Z,83.80
2018-11-05T05:20:16.584Z,84.00
2018-11-05T05:22:44.778Z,85.50
2018-11-05T05:25:12.793Z,85.00
2018-11-05T05:27:40.560Z,85.00
2018-11-05T05:30:11.233Z,85.00
2018-11-05T05:32:38.821Z,85.30
2018-11-05T05:35:06.472Z,85.20
2018-11-05T05:37:34.376Z,85.70
2018-11-05T05:40:01.940Z,85.50
2018-11-05T05:42:29.707Z,85.70
2018-11-05T05:44:57.901Z,85.70
2018-11-05T05:47:25.701Z,86.50
2018-11-05T05:49:53.324Z,85.40
2018-11-05T05:52:20.963Z,85.40
2018-11-05T05:54:49.501Z,85.70
2018-11-05T05:57:17.370Z,85.60
2018-11-05T05:59:45.163Z,85.70
2018-11-05T06:02:12.900Z,85.60
2018-11-05T06:04:40.701Z,85.60
2018-11-05T06:07:08.316Z,85.10
2018-11-05T06:09:35.969Z,84.80
2018-11-05T06:12:03.608Z,85.10
2018-11-05T06:14:31.761Z,85.00
2018-11-05T06:16:59.389Z,85.00
2018-11-05T06:19:27.020Z,86.90
2018-11-05T06:21:54.779Z,86.60
2018-11-05T06:24:22.380Z,85.90
2018-11-05T06:26:51.344Z,85.40
2018-11-05T06:29:19.043Z,84.40
2018-11-05T06:31:46.740Z,82.90
2018-11-05T06:34:14.912Z,81.80
2018-11-05T06:36:42.675Z,81.40
2018-11-05T06:39:11.667Z,80.90
2018-11-05T06:41:39.755Z,80.60
2018-11-05T06:44:07.479Z,81.50
2018-11-05T06:46:35.168Z,82.10
2018-11-05T06:49:02.959Z,82.00
2018-11-05T06:51:31.121Z,81.70
2018-11-05T06:53:58.764Z,81.90
2018-11-05T06:56:26.413Z,82.00
2018-11-05T06:58:54.206Z,82.00
2018-11-05T07:01:21.844Z,82.00
2018-11-05T07:03:49.473Z,81.80
2018-11-05T07:06:17.090Z,81.40
2018-11-05T07:08:44.748Z,81.80
2018-11-05T07:11:12.425Z,81.30
2018-11-05T07:13:40.050Z,81.10
2018-11-05T07:16:07.717Z,81.40
2018-11-05T07:18:35.500Z,82.00
2018-11-05T07:21:03.136Z,82.30
2018-11-05T07:23:32.781Z,81.80
2018-11-05T07:26:00.388Z,81.80
2018-11-05T07:28:28.073Z,81.90
2018-11-05T07:30:55.768Z,81.50
2018-11-05T07:33:23.499Z,81.00
2018-11-05T07:35:51.073Z,81.10
2018-11-05T07:38:18.952Z,81.40
2018-11-05T07:40:46.695Z,81.70
2018-11-05T07:43:14.344Z,82.00
2018-11-05T07:45:42.050Z,81.90
2018-11-05T07:48:12.908Z,82.00
2018-11-05T07:50:40.632Z,82.20
2018-11-05T07:53:08.293Z,82.40
2018-11-05T07:55:35.932Z,82.50
2018-11-05T07:58:07.261Z,82.50
2018-11-05T08:00:40.584Z,83.00
2018-11-05T08:03:08.284Z,82.00
2018-11-05T08:05:35.937Z,81.90
2018-11-05T08:08:04.221Z,82.00
2018-11-05T08:10:31.856Z,81.70
2018-11-05T08:12:59.609Z,82.20
2018-11-05T08:15:27.272Z,82.70
2018-11-05T08:17:55.040Z,82.40
2018-11-05T08:20:22.722Z,82.40
2018-11-05T08:22:50.373Z,83.10
2018-11-05T08:25:18.180Z,83.80
2018-11-05T08:27:46.364Z,84.30
2018-11-05T08:30:23.588Z,84.50
2018-11-05T08:32:51.398Z,84.70
2018-11-05T08:35:19.070Z,84.40
2018-11-05T08:37:47.234Z,84.30
2018-11-05T08:40:19.634Z,84.60
2018-11-05T08:42:48.120Z,84.70
2018-11-05T08:45:16.976Z,85.20
2018-11-05T08:47:44.633Z,85.50
2018-11-05T08:50:16.246Z,85.70
2018-11-05T08:52:44.014Z,85.70
2018-11-05T08:55:13.836Z,85.70
2018-11-05T08:57:41.919Z,86.00
2018-11-05T09:00:22.308Z,86.00
2018-11-05T09:02:50.299Z,85.90
2018-11-05T09:05:18.214Z,85.90
2018-11-05T09:07:46.540Z,85.60
2018-11-05T09:10:14.232Z,85.80
2018-11-05T09:12:42.207Z,86.20
2018-11-05T09:15:11.717Z,86.10
2018-11-05T09:17:40.302Z,86.50
2018-11-05T09:20:09.006Z,86.50
2018-11-05T09:22:36.940Z,86.20
2018-11-05T09:25:04.940Z,86.10
2018-11-05T09:27:32.569Z,85.80
2018-11-05T09:30:00.249Z,86.40
2018-11-05T09:32:27.900Z,86.10
2018-11-05T09:34:55.766Z,86.10
2018-11-05T09:37:23.457Z,86.10
2018-11-05T09:39:51.535Z,86.30
2018-11-05T09:42:19.216Z,86.20
2018-11-05T09:44:47.126Z,86.80
2018-11-05T09:47:14.833Z,87.00
2018-11-05T09:49:43.003Z,86.60
2018-11-05T09:52:10.808Z,86.60
2018-11-05T09:54:38.485Z,87.00
2018-11-05T09:57:06.131Z,87.10
2018-11-05T09:59:33.782Z,87.70
2018-11-05T10:02:01.394Z,87.30
2018-11-05T10:04:29.309Z,87.20
2018-11-05T10:06:56.721Z,87.30
2018-11-05T10:09:24.412Z,87.40
2018-11-05T10:11:52.100Z,87.20
2018-11-05T10:14:19.760Z,87.40
2018-11-05T10:16:47.437Z,87.30
2018-11-05T10:19:15.099Z,87.20
2018-11-05T10:21:42.740Z,87.40
2018-11-05T10:24:10.391Z,87.20
2018-11-05T10:26:38.250Z,87.70
2018-11-05T10:29:05.952Z,87.40
2018-11-05T10:31:33.616Z,86.90
2018-11-05T10:34:01.240Z,86.40
2018-11-05T10:36:29.140Z,86.50
2018-11-05T10:38:56.797Z,86.30
2018-11-05T10:41:24.445Z,86.70
2018-11-05T10:43:52.091Z,86.80
2018-11-05T10:46:19.857Z,87.70
2018-11-05T10:48:47.488Z,87.50
2018-11-05T10:51:15.207Z,87.20
2018-11-05T10:53:42.896Z,85.60
2018-11-05T10:56:10.591Z,82.10
2018-11-05T10:58:38.264Z,81.00
2018-11-05T11:01:12.092Z,80.30
2018-11-05T11:03:39.911Z,78.60
2018-11-05T11:06:09.010Z,78.40
2018-11-05T11:08:36.743Z,78.60
2018-11-05T11:11:04.712Z,77.20
2018-11-05T11:13:32.393Z,75.00
2018-11-05T11:16:00.058Z,74.00
2018-11-05T11:18:27.731Z,73.60
2018-11-05T11:20:55.396Z,71.80
2018-11-05T11:23:23.094Z,70.70
2018-11-05T11:25:50.756Z,70.90
2018-11-05T11:28:18.684Z,71.20
2018-11-05T11:30:46.321Z,71.70
2018-11-05T11:33:13.971Z,72.90
2018-11-05T11:35:41.904Z,73.30
2018-11-05T11:38:10.405Z,73.20
2018-11-05T11:40:38.112Z,73.60
2018-11-05T11:43:05.794Z,72.20
2018-11-05T11:45:33.491Z,72.30
2018-11-05T11:48:01.232Z,68.90
2018-11-05T11:50:29.256Z,69.80
2018-11-05T11:52:57.011Z,70.30
2018-11-05T11:55:24.874Z,70.60
2018-11-05T11:57:52.618Z,70.40
2018-11-05T12:00:21.752Z,70.60
2018-11-05T12:02:50.014Z,70.80
2018-11-05T12:05:17.807Z,71.20
2018-11-05T12:07:45.351Z,71.40
2018-11-05T12:10:16.533Z,71.10
2018-11-05T12:12:44.381Z,70.00
2018-11-05T12:15:12.936Z,68.90
2018-11-05T12:17:41.284Z,69.40
2018-11-05T12:20:11.844Z,68.50
2018-11-05T12:22:39.857Z,68.60
2018-11-05T12:25:08.035Z,67.20
2018-11-05T12:27:35.941Z,67.50
2018-11-05T12:30:04.380Z,67.30
2018-11-05T12:32:32.097Z,67.10
2018-11-05T12:34:59.940Z,66.70
2018-11-05T12:37:27.624Z,66.20
2018-11-05T12:39:55.293Z,66.30
2018-11-05T12:42:23.061Z,65.90
2018-11-05T12:44:50.758Z,65.90
2018-11-05T12:47:18.513Z,65.80
2018-11-05T12:49:46.132Z,65.90
2018-11-05T12:52:13.824Z,65.00
2018-11-05T12:54:41.468Z,64.00
2018-11-05T12:57:09.249Z,63.90
2018-11-05T12:59:37.144Z,63.80
2018-11-05T13:02:04.921Z,63.20
2018-11-05T13:04:32.608Z,62.90
2018-11-05T13:07:00.515Z,62.90
2018-11-05T13:09:28.129Z,63.00
2018-11-05T13:11:55.917Z,62.90
2018-11-05T13:14:23.550Z,62.60
2018-11-05T13:16:51.300Z,62.10
2018-11-05T13:19:18.952Z,62.50
2018-11-05T13:21:46.704Z,63.20
2018-11-05T13:24:14.430Z,62.40
2018-11-05T13:26:42.033Z,62.40
2018-11-05T13:29:09.737Z,62.50
2018-11-05T13:31:37.405Z,62.70
2018-11-05T13:34:05.350Z,62.30
2018-11-05T13:36:33.137Z,62.00
2018-11-05T13:39:00.758Z,62.30
2018-11-05T13:41:28.620Z,61.20
2018-11-05T13:43:56.397Z,61.00
2018-11-05T13:46:24.603Z,61.10
2018-11-05T13:48:52.341Z,60.80
2018-11-05T13:51:19.410Z,61.50
2018-11-05T13:53:47.061Z,61.60
2018-11-05T13:56:14.691Z,61.70
2018-11-05T13:58:42.650Z,62.10
2018-11-05T14:01:10.280Z,62.10
2018-11-05T14:03:37.964Z,62.20
2018-11-05T14:06:05.612Z,62.30
2018-11-05T14:08:33.403Z,62.90
2018-11-05T14:11:01.441Z,62.50
2018-11-05T14:13:29.007Z,62.60
2018-11-05T14:15:56.720Z,62.20
2018-11-05T14:18:24.561Z,62.10
2018-11-05T14:20:52.409Z,62.20
2018-11-05T14:23:20.153Z,62.10
2018-11-05T14:25:47.947Z,62.10
2018-11-05T14:28:15.552Z,62.20
2018-11-05T14:30:43.181Z,62.50
2018-11-05T14:33:11.323Z,62.20
2018-11-05T14:35:39.072Z,62.00
2018-11-05T14:38:06.789Z,62.20
2018-11-05T14:40:34.408Z,62.30
2018-11-05T14:43:02.192Z,62.50
2018-11-05T14:45:29.809Z,62.40
2018-11-05T14:47:57.521Z,62.30
2018-11-05T14:50:25.279Z,62.40
2018-11-05T14:52:52.944Z,62.80
2018-11-05T14:55:20.732Z,63.10
2018-11-05T14:57:49.472Z,63.20
2018-11-05T15:00:24.253Z,63.30
2018-11-05T15:02:52.069Z,63.40
2018-11-05T15:05:19.729Z,63.40
2018-11-05T15:07:48.169Z,63.40
2018-11-05T15:10:20.151Z,63.80
2018-11-05T15:12:47.866Z,64.10
2018-11-05T15:15:16.229Z,64.40
2018-11-05T15:17:44.404Z,64.50
2018-11-05T15:20:17.427Z,64.50
2018-11-05T15:22:44.844Z,64.50
2018-11-05T15:25:13.124Z,64.60
2018-11-05T15:27:40.737Z,64.90
2018-11-05T15:30:10.908Z,64.90
2018-11-05T15:32:39.160Z,64.90
2018-11-05T15:35:06.871Z,65.00
2018-11-05T15:37:34.644Z,65.40
2018-11-05T15:40:02.328Z,65.20
2018-11-05T15:42:29.968Z,65.70
2018-11-05T15:44:57.873Z,65.80
2018-11-05T15:47:25.535Z,66.10
2018-11-05T15:49:53.221Z,65.90
2018-11-05T15:52:21.295Z,66.30
2018-11-05T15:54:48.663Z,66.20
2018-11-05T15:57:16.308Z,66.60
2018-11-05T15:59:44.030Z,66.70
2018-11-05T16:02:12.707Z,66.50
2018-11-05T16:04:41.631Z,67.30
2018-11-05T16:07:09.504Z,66.60
2018-11-05T16:09:37.988Z,66.70
2018-11-05T16:12:06.157Z,66.80
2018-11-05T16:14:33.964Z,66.20
2018-11-05T16:17:01.742Z,66.20
2018-11-05T16:19:29.405Z,66.00
2018-11-05T16:21:57.229Z,66.00
2018-11-05T16:24:25.500Z,65.90
2018-11-05T16:26:53.170Z,66.40
2018-11-05T16:29:21.154Z,66.60
2018-11-05T16:31:48.836Z,67.00
2018-11-05T16:34:16.507Z,67.50
2018-11-05T16:36:44.187Z,67.90
2018-11-05T16:39:13.117Z,68.20
2018-11-05T16:41:41.646Z,67.90
2018-11-05T16:44:09.856Z,68.10
2018-11-05T16:46:38.047Z,68.80
2018-11-05T16:49:06.027Z,69.00
2018-11-05T16:51:33.931Z,69.00
2018-11-05T16:54:01.764Z,69.30
2018-11-05T16:56:29.610Z,69.50
2018-11-05T16:58:57.228Z,69.60
2018-11-05T17:01:25.491Z,69.60
2018-11-05T17:03:52.841Z,69.70
2018-11-05T17:06:20.805Z,68.80
2018-11-05T17:08:48.476Z,68.10
2018-11-05T17:11:16.162Z,67.90
2018-11-05T17:13:43.812Z,68.40
2018-11-05T17:16:11.426Z,68.70
2018-11-05T17:18:39.113Z,68.70
2018-11-05T17:21:06.917Z,68.60
2018-11-05T17:23:34.872Z,70.00
2018-11-05T17:26:02.614Z,70.10
2018-11-05T17:28:30.170Z,70.50
2018-11-05T17:30:57.797Z,70.50
2018-11-05T17:33:25.355Z,70.30
2018-11-05T17:35:53.249Z,69.60
2018-11-05T17:38:22.063Z,69.40
2018-11-05T17:40:49.959Z,68.60
2018-11-05T17:43:17.610Z,68.80
2018-11-05T17:45:45.361Z,69.10
2018-11-05T17:48:15.212Z,69.70
2018-11-05T17:50:43.642Z,68.30
2018-11-05T17:53:11.396Z,68.20
2018-11-05T17:55:39.008Z,68.00
2018-11-05T17:58:07.048Z,68.50
2018-11-05T18:00:34.728Z,68.90
2018-11-05T18:03:02.333Z,68.60
2018-11-05T18:05:29.912Z,68.90
2018-11-05T18:07:57.489Z,69.50
2018-11-05T18:10:25.060Z,69.60
2018-11-05T18:12:52.776Z,69.50
2018-11-05T18:15:20.370Z,69.20
2018-11-05T18:17:48.004Z,70.00
2018-11-05T18:20:16.289Z,69.50
2018-11-05T18:22:44.008Z,69.50
2018-11-05T18:25:13.116Z,70.40
2018-11-05T18:27:40.903Z,71.20
2018-11-05T18:30:10.232Z,71.10
2018-11-05T18:32:37.915Z,70.30
2018-11-05T18:35:08.663Z,70.10
2018-11-05T18:37:36.370Z,70.00
2018-11-05T18:40:06.285Z,69.80
2018-11-05T18:42:34.121Z,69.90
2018-11-05T18:45:01.746Z,69.90
2018-11-05T18:47:29.396Z,69.60
2018-11-05T18:49:57.085Z,69.80
2018-11-05T18:52:24.721Z,69.90
2018-11-05T18:54:53.056Z,69.40
2018-11-05T18:57:21.189Z,69.50
2018-11-05T18:59:48.824Z,68.60
2018-11-05T19:02:23.932Z,69.90
2018-11-05T19:04:51.748Z,68.70
2018-11-05T19:07:19.351Z,67.60
2018-11-05T19:09:47.317Z,68.30
2018-11-05T19:12:14.996Z,68.70
2018-11-05T19:14:42.611Z,68.50
2018-11-05T19:17:10.305Z,68.90
2018-11-05T19:19:38.034Z,68.50
2018-11-05T19:22:05.919Z,68.50
2018-11-05T19:24:34.009Z,68.60
2018-11-05T19:27:01.357Z,69.20
2018-11-05T19:29:29.213Z,70.40
2018-11-05T19:31:57.184Z,68.90
2018-11-05T19:34:24.882Z,68.20
2018-11-05T19:36:52.433Z,69.40
2018-11-05T19:39:20.337Z,69.10
2018-11-05T19:41:48.137Z,69.40
2018-11-05T19:44:15.764Z,68.00
2018-11-05T19:46:43.319Z,68.80
2018-11-05T19:49:11.300Z,68.30
2018-11-05T19:51:39.032Z,68.60
2018-11-05T19:54:06.995Z,69.60
2018-11-05T19:56:34.809Z,68.60
2018-11-05T19:59:02.389Z,68.30
2018-11-05T20:01:30.007Z,67.40
2018-11-05T20:03:58.182Z,66.40
2018-11-05T20:06:25.819Z,66.60
2018-11-05T20:08:53.457Z,68.20
2018-11-05T20:11:21.105Z,69.00
2018-11-05T20:13:48.877Z,68.30
2018-11-05T20:16:16.505Z,67.80
2018-11-05T20:18:44.169Z,67.20
2018-11-05T20:21:11.699Z,67.30
2018-11-05T20:23:39.527Z,67.90
2018-11-05T20:26:07.205Z,68.70
2018-11-05T20:28:34.903Z,69.40
2018-11-05T20:31:02.798Z,68.20
2018-11-05T20:33:30.653Z,67.70
2018-11-05T20:35:58.934Z,67.30
2018-11-05T20:38:26.987Z,68.20
2018-11-05T20:40:54.809Z,68.60
2018-11-05T20:43:22.728Z,68.80
2018-11-05T20:45:50.784Z,68.60
2018-11-05T20:48:18.806Z,68.40
2018-11-05T20:50:46.437Z,68.60
2018-11-05T20:53:14.117Z,68.20
2018-11-05T20:55:41.699Z,67.30
2018-11-05T20:58:09.304Z,67.40
2018-11-05T21:00:36.924Z,67.50
2018-11-05T21:03:04.571Z,67.70
2018-11-05T21:05:32.425Z,68.00
2018-11-05T21:08:00.018Z,68.00
2018-11-05T21:10:27.587Z,67.90
2018-11-05T21:12:55.268Z,68.70
2018-11-05T21:15:23.132Z,69.10
2018-11-05T21:17:51.655Z,68.30
2018-11-05T21:20:19.245Z,68.00
2018-11-05T21:22:47.631Z,67.80
2018-11-05T21:25:14.923Z,67.20
2018-11-05T21:27:42.949Z,67.30
2018-11-05T21:30:12.585Z,67.70
2018-11-05T21:32:40.200Z,67.50
2018-11-05T21:35:10.728Z,67.80
2018-11-05T21:37:38.563Z,67.90
2018-11-05T21:40:06.945Z,67.60
2018-11-05T21:42:34.505Z,67.50
2018-11-05T21:45:02.623Z,67.00
2018-11-05T21:47:30.233Z,66.90
2018-11-05T21:49:57.820Z,66.70
2018-11-05T21:52:25.598Z,67.70
2018-11-05T21:54:53.192Z,67.60
2018-11-05T21:57:20.801Z,67.60
2018-11-05T21:59:48.376Z,67.60
2018-11-05T22:02:15.986Z,68.50
2018-11-05T22:04:43.619Z,68.60
2018-11-05T22:07:11.305Z,68.20
2018-11-05T22:09:38.894Z,67.90
2018-11-05T22:12:06.525Z,68.20
2018-11-05T22:14:34.231Z,68.30
2018-11-05T22:17:01.854Z,68.80
2018-11-05T22:19:29.468Z,69.00
2018-11-05T22:21:57.113Z,69.40
2018-11-05T22:24:24.771Z,69.50
2018-11-05T22:26:52.355Z,68.30
2018-11-05T22:29:19.928Z,67.70
2018-11-05T22:31:47.569Z,68.00
2018-11-05T22:34:15.228Z,69.10
2018-11-05T22:36:42.875Z,69.30
2018-11-05T22:39:10.451Z,69.80
2018-11-05T22:41:38.228Z,70.20
2018-11-05T22:44:06.020Z,69.70
2018-11-05T22:46:33.620Z,69.00
2018-11-05T22:49:01.187Z,68.70
2018-11-05T22:51:28.802Z,68.50
2018-11-05T22:53:56.448Z,69.50
2018-11-05T22:56:24.097Z,68.90
2018-11-05T22:58:51.765Z,68.80
2018-11-05T23:01:25.064Z,68.60
2018-11-05T23:03:52.924Z,68.90
2018-11-05T23:06:20.500Z,68.60
2018-11-05T23:08:48.070Z,68.50
2018-11-05T23:11:15.688Z,68.10
2018-11-05T23:13:43.266Z,67.90
2018-11-05T23:16:10.868Z,67.90
2018-11-05T23:18:38.451Z,68.20
2018-11-05T23:21:06.378Z,69.20
2018-11-05T23:23:33.950Z,70.00
2018-11-05T23:26:01.552Z,70.60
2018-11-05T23:28:29.146Z,69.30
2018-11-05T23:30:56.743Z,69.00
2018-11-05T23:33:24.473Z,69.50
2018-11-05T23:35:52.045Z,69.70
2018-11-05T23:38:19.724Z,69.30
2018-11-05T23:40:47.455Z,69.80
2018-11-05T23:43:15.241Z,70.40
2018-11-05T23:45:43.136Z,69.90
2018-11-05T23:48:10.700Z,69.60
2018-11-05T23:50:38.589Z,70.10
2018-11-05T23:53:06.214Z,70.40
2018-11-05T23:55:34.118Z,70.30
2018-11-05T23:58:01.733Z,70.50
